• Join FlightAware (Why Join?)
  • Login
  • US Flag 
08:29AM EDT


 

Airport Tracker/Info


-or-


 

Live Flight TrackerFlight Track Log ✈ FLG3862 ✈ 12-May-2013 ✈ KDTW - KBTV

Flight Track Log - Related Links

Times and Time Zones

All times are in EDT time to prevent confusion due to time zone crossing. See the FLG3862 flight status page for this flight to view local times or setup timezone preferences in your user account.

Time Position Orientation Groundspeed Altitude Reporting Facility
EDT Latitude Longitude Course Direction KTS MPH feet Rate Location/Type
10:36AM 42.2036 -83.3556 71° East 151 174 1,400  Level Cleveland Center
10:38AM 42.1122 -83.3431 174° South 250 288 6,100 2,400 Climbing Cleveland Center
10:39AM 42.2934 -82.8666 75° East  Level FlightAware Approximate
10:40AM 42.3212 -82.7045 82° East  Level FlightAware Approximate
10:40AM 42.0661 -83.1817 111° Southeast 322 371 10,000  Level Cleveland Center
10:41AM 42.3439 -82.5411 71° East  Level FlightAware Approximate
10:41AM 42.1164 -83.0661 60° Northeast 322 371 10,500  Level Cleveland Center
10:42AM 42.1692 -82.9392 61° Northeast 353 406 13,100 2,520 Climbing Cleveland Center
10:43AM 42.2219 -82.8094 61° Northeast 375 432 15,600 2,460 Climbing Cleveland Center
10:44AM 42.2764 -82.6767 61° Northeast 386 444 18,100 2,460 Climbing Cleveland Center
10:45AM 42.3286 -82.5519 60° Northeast 386 444 20,600 2,100 Climbing Cleveland Center
10:46AM 42.3664 -82.4125 70° East 386 444 22,400 1,260 Climbing Cleveland Center
10:47AM 42.3583 -82.2522 94° East 389 448 23,200 840 Climbing Cleveland Center
10:48AM 42.3525 -82.0864 93° East 408 470 24,100 840 Climbing Cleveland Center
10:49AM 42.3461 -81.9175 93° East 444 511 24,900 780 Climbing Cleveland Center
10:50AM 42.3375 -81.7433 94° East 466 536 25,700 780 Climbing Cleveland Center
10:51AM 42.3308 -81.5661 93° East 466 536 26,500 720 Climbing Cleveland Center
10:52AM 42.3217 -81.4089 94° East 466 536 27,200 720 Climbing Cleveland Center
10:53AM 42.3125 -81.2344 94° East 466 536 28,000 780 Climbing Cleveland Center
10:54AM 42.3050 -81.0575 93° East 466 536 28,800 660 Climbing Cleveland Center
10:55AM 42.2953 -80.8808 94° East 472 543 29,400 600 Climbing Cleveland Center
10:56AM 42.2850 -80.6842 94° East 472 543 30,000 600 Climbing Cleveland Center
10:57AM 42.2767 -80.4989 93° East 487 560 30,600 480 Climbing Cleveland Center
10:58AM 42.2639 -80.3139 95° East 487 560 31,000 180 Climbing Cleveland Center
10:59AM 42.2531 -80.1286 94° East 492 566 31,000  Level Cleveland Center
11:00AM 42.2439 -79.9436 94° East 497 572 31,000  Level Cleveland Center
11:01AM 42.2322 -79.7531 95° East 502 578 31,000  Level Cleveland Center
11:02AM 42.2222 -79.5683 94° East 502 578 31,000  Level Cleveland Center
11:03AM 42.2686 -79.3878 71° East 489 563 31,000  Level Cleveland Center
11:04AM 42.3375 -79.2153 62° Northeast 497 572 31,000  Level Cleveland Center
11:05AM 42.4083 -79.0478 60° Northeast 497 572 31,000  Level Cleveland Center
11:06AM 42.4728 -78.8914 61° Northeast 515 593 31,000  Level Cleveland Center
11:07AM 42.5433 -78.7233 60° Northeast 515 593 31,000  Level Cleveland Center
11:08AM 42.6153 -78.5519 60° Northeast 515 593 31,000  Level Cleveland Center
11:09AM 42.6872 -78.3800 60° Northeast 515 593 31,000  Level Cleveland Center
11:10AM 42.7589 -78.2078 60° Northeast 515 593 31,000  Level Cleveland Center
11:11AM 42.8281 -78.0353 61° Northeast 515 593 31,000  Level Cleveland Center
11:12AM 42.8992 -77.8653 60° Northeast 515 593 31,000  Level Cleveland Center
11:13AM 42.9700 -77.6919 61° Northeast 515 593 31,000  Level Cleveland Center
11:14AM 43.0428 -77.5150 61° Northeast 515 593 31,000  Level Cleveland Center
11:15AM 43.1611 -77.2203 61° Northeast 513 590 31,000  Level Boston Center
11:16AM 43.2328 -77.0433 61° Northeast 520 598 31,000  Level Boston Center
11:17AM 43.3025 -76.8658 62° Northeast 520 598 31,000  Level Boston Center
11:18AM 43.3717 -76.6881 62° Northeast 525 604 31,000  Level Boston Center
11:19AM 43.4369 -76.5036 64° Northeast 530 610 31,000  Level Boston Center
11:20AM 43.4975 -76.3189 66° East 525 604 31,000  Level Boston Center
11:21AM 43.5581 -76.1306 66° East 525 604 31,000 -360 Level Boston Center
11:22AM 43.6203 -75.9422 65° Northeast 525 604 30,300 -1,140 Descending Boston Center
11:23AM 43.6867 -75.7364 66° East 530 610 28,800 -1,500 Descending Boston Center
11:24AM 43.7483 -75.5442 66° East 530 610 27,400 -1,500 Descending Boston Center
11:25AM 43.8053 -75.3603 67° East 530 610 25,900 -1,500 Descending Boston Center
11:26AM 43.8619 -75.1786 67° East 530 610 24,400 -1,500 Descending Boston Center
11:27AM 43.9183 -74.9967 67° East 523 602 22,900 -1,560 Descending Boston Center
11:28AM 43.9719 -74.8200 67° East 509 586 21,300 -1,560 Descending Boston Center
11:29AM 44.0233 -74.6489 67° East 491 565 19,800 -1,200 Descending Boston Center
11:30AM 44.0744 -74.4831 67° East 478 550 19,000 -420 Descending Boston Center
11:31AM 44.1272 -74.3144 66° East 468 539 19,000 -780 Level Boston Center
11:33AM 44.1778 -74.1481 67° East 468 539 17,400 -1,500 Descending Boston Center
11:34AM 44.2347 -73.9614 67° East 462 532 15,700 -1,620 Descending Boston Center
11:35AM 44.2803 -73.8058 68° East 443 510 14,200 -1,500 Descending Boston Center
11:36AM 44.3111 -73.6672 73° East 423 487 12,700 -1,500 Descending Boston Center
11:37AM 44.3353 -73.5228 77° East 394 453 11,200 -1,380 Descending Boston Center
11:38AM 44.3572 -73.3983 76° East 353 406 10,000 -1,800 Descending Boston Center
11:39AM 44.3436 -73.2761 99° East 290 334 7,600 -2,040 Descending Boston Center
11:40AM 44.3278 -73.1686 102° East 285 328 6,000 -1,680 Descending Boston Center
11:41AM 44.3325 -73.0697 86° East 271 312 4,300 -1,740 Descending Boston Center